sensor_id;sensor_type;location;lat;lon;timestamp;P1;durP1;ratioP1;P2;durP2;ratioP2
75939;SDS011;64616;44.872;20.642;2024-01-16T14:39:00;9.88;;;3.83;;
75939;SDS011;64616;44.872;20.642;2024-01-16T14:41:26;10.68;;;4.18;;
75939;SDS011;64616;44.872;20.642;2024-01-16T14:43:52;16.80;;;7.60;;
75939;SDS011;64616;44.872;20.642;2024-01-16T14:46:17;24.08;;;11.15;;
75939;SDS011;75809;44.872;20.642;2024-01-16T14:48:44;20.70;;;10.68;;
75939;SDS011;75809;44.872;20.642;2024-01-16T14:51:11;21.92;;;10.57;;
75939;SDS011;75809;44.872;20.642;2024-01-16T14:53:36;17.88;;;8.48;;
75939;SDS011;75809;44.872;20.642;2024-01-16T14:56:02;16.65;;;7.88;;
75939;SDS011;75809;44.872;20.642;2024-01-16T14:58:28;21.60;;;9.30;;
75939;SDS011;75809;44.872;20.642;2024-01-16T15:00:54;16.50;;;7.78;;
75939;SDS011;75809;44.872;20.642;2024-01-16T15:03:21;12.45;;;4.93;;
75939;SDS011;75809;44.872;20.642;2024-01-16T15:05:47;16.13;;;7.00;;
75939;SDS011;75809;44.872;20.642;2024-01-16T15:08:13;14.52;;;5.82;;
75939;SDS011;75809;44.872;20.642;2024-01-16T15:10:39;17.73;;;7.80;;
75939;SDS011;75809;44.872;20.642;2024-01-16T15:13:05;15.70;;;6.45;;
75939;SDS011;75809;44.872;20.642;2024-01-16T15:15:31;13.93;;;5.97;;
75939;SDS011;75809;44.872;20.642;2024-01-16T15:17:56;14.38;;;5.10;;
75939;SDS011;75809;44.872;20.642;2024-01-16T15:20:22;13.93;;;6.50;;
75939;SDS011;75809;44.872;20.642;2024-01-16T15:22:48;20.30;;;7.90;;
75939;SDS011;75809;44.872;20.642;2024-01-16T15:25:17;24.38;;;9.93;;
75939;SDS011;75809;44.872;20.642;2024-01-16T15:27:46;26.90;;;10.52;;
75939;SDS011;75809;44.872;20.642;2024-01-16T15:30:13;27.83;;;10.43;;
75939;SDS011;75809;44.872;20.642;2024-01-16T15:32:39;23.25;;;10.88;;
75939;SDS011;75809;44.872;20.642;2024-01-16T15:35:05;25.52;;;9.75;;
75939;SDS011;75809;44.872;20.642;2024-01-16T15:37:34;22.08;;;9.77;;
75939;SDS011;75809;44.872;20.642;2024-01-16T15:40:00;20.13;;;8.02;;
75939;SDS011;75809;44.872;20.642;2024-01-16T15:42:26;22.00;;;8.30;;
75939;SDS011;75809;44.872;20.642;2024-01-16T15:44:52;18.02;;;7.53;;
75939;SDS011;75809;44.872;20.642;2024-01-16T15:47:20;19.80;;;8.48;;
75939;SDS011;75809;44.872;20.642;2024-01-16T15:49:46;22.63;;;9.57;;
75939;SDS011;75809;44.872;20.642;2024-01-16T15:52:12;22.58;;;9.52;;
75939;SDS011;75809;44.872;20.642;2024-01-16T15:54:39;21.92;;;8.93;;
75939;SDS011;75809;44.872;20.642;2024-01-16T15:57:04;21.20;;;8.20;;
75939;SDS011;75809;44.872;20.642;2024-01-16T15:59:30;18.48;;;8.13;;
75939;SDS011;75809;44.872;20.642;2024-01-16T16:01:56;21.08;;;8.60;;
75939;SDS011;75809;44.872;20.642;2024-01-16T16:04:21;22.38;;;9.25;;
75939;SDS011;75809;44.872;20.642;2024-01-16T16:06:48;25.10;;;10.95;;
75939;SDS011;75809;44.872;20.642;2024-01-16T16:09:14;20.98;;;8.60;;
75939;SDS011;75809;44.872;20.642;2024-01-16T16:11:42;26.52;;;9.80;;
75939;SDS011;75809;44.872;20.642;2024-01-16T16:14:09;23.60;;;9.02;;
75939;SDS011;75809;44.872;20.642;2024-01-16T16:16:35;30.38;;;10.82;;
75939;SDS011;75809;44.872;20.642;2024-01-16T16:19:02;22.45;;;9.40;;
75939;SDS011;75809;44.872;20.642;2024-01-16T16:21:29;30.40;;;10.02;;
75939;SDS011;75809;44.872;20.642;2024-01-16T16:23:56;23.02;;;8.85;;
75939;SDS011;75809;44.872;20.642;2024-01-16T16:26:32;21.17;;;8.13;;
75939;SDS011;75809;44.872;20.642;2024-01-16T16:29:00;24.50;;;9.65;;
75939;SDS011;75809;44.872;20.642;2024-01-16T16:31:27;20.55;;;8.23;;
75939;SDS011;75809;44.872;20.642;2024-01-16T16:33:53;20.85;;;8.32;;
75939;SDS011;75809;44.872;20.642;2024-01-16T16:36:18;24.98;;;9.57;;
75939;SDS011;75809;44.872;20.642;2024-01-16T16:38:44;26.92;;;11.40;;
75939;SDS011;75809;44.872;20.642;2024-01-16T16:41:09;30.15;;;12.50;;
75939;SDS011;75809;44.872;20.642;2024-01-16T16:43:35;32.30;;;12.73;;
75939;SDS011;75809;44.872;20.642;2024-01-16T16:46:00;30.55;;;12.32;;
75939;SDS011;75809;44.872;20.642;2024-01-16T16:48:26;29.92;;;11.63;;
75939;SDS011;75809;44.872;20.642;2024-01-16T16:50:51;42.35;;;11.23;;
75939;SDS011;75809;44.872;20.642;2024-01-16T16:53:17;29.25;;;11.50;;
75939;SDS011;75809;44.872;20.642;2024-01-16T16:55:42;29.10;;;11.60;;
75939;SDS011;75809;44.872;20.642;2024-01-16T16:58:07;28.77;;;12.23;;
75939;SDS011;75809;44.872;20.642;2024-01-16T17:00:35;28.05;;;11.35;;
75939;SDS011;75809;44.872;20.642;2024-01-16T17:03:00;27.63;;;11.57;;
75939;SDS011;75809;44.872;20.642;2024-01-16T17:05:28;31.25;;;11.27;;
75939;SDS011;75809;44.872;20.642;2024-01-16T17:07:54;24.48;;;10.30;;
75939;SDS011;75809;44.872;20.642;2024-01-16T17:10:19;30.98;;;12.23;;
75939;SDS011;75809;44.872;20.642;2024-01-16T17:12:45;32.85;;;12.60;;
75939;SDS011;75809;44.872;20.642;2024-01-16T17:15:11;36.33;;;14.55;;
75939;SDS011;75809;44.872;20.642;2024-01-16T17:17:37;40.25;;;15.55;;
75939;SDS011;75809;44.872;20.642;2024-01-16T17:20:02;42.60;;;16.83;;
75939;SDS011;75809;44.872;20.642;2024-01-16T17:22:28;42.53;;;16.98;;
75939;SDS011;75809;44.872;20.642;2024-01-16T17:24:53;47.42;;;17.55;;
75939;SDS011;75809;44.872;20.642;2024-01-16T17:27:19;46.67;;;18.48;;
75939;SDS011;75809;44.872;20.642;2024-01-16T17:29:45;42.28;;;19.20;;
75939;SDS011;75809;44.872;20.642;2024-01-16T17:32:11;46.65;;;17.85;;
75939;SDS011;75809;44.872;20.642;2024-01-16T17:34:36;39.00;;;16.80;;
75939;SDS011;75809;44.872;20.642;2024-01-16T17:37:02;43.95;;;17.42;;
75939;SDS011;75809;44.872;20.642;2024-01-16T17:39:28;38.83;;;16.33;;
75939;SDS011;75809;44.872;20.642;2024-01-16T17:41:53;44.10;;;18.25;;
75939;SDS011;75809;44.872;20.642;2024-01-16T17:44:19;45.72;;;17.90;;
75939;SDS011;75809;44.872;20.642;2024-01-16T17:46:44;44.70;;;17.90;;
75939;SDS011;75809;44.872;20.642;2024-01-16T17:49:10;38.85;;;17.58;;
75939;SDS011;75809;44.872;20.642;2024-01-16T17:51:36;34.55;;;15.23;;
75939;SDS011;75809;44.872;20.642;2024-01-16T17:54:04;29.30;;;13.48;;
75939;SDS011;75809;44.872;20.642;2024-01-16T17:56:30;37.08;;;15.77;;
75939;SDS011;75809;44.872;20.642;2024-01-16T17:58:55;27.25;;;12.35;;
75939;SDS011;75809;44.872;20.642;2024-01-16T18:01:22;30.05;;;14.10;;
75939;SDS011;75809;44.872;20.642;2024-01-16T18:03:48;33.38;;;14.38;;
75939;SDS011;75809;44.872;20.642;2024-01-16T18:06:13;32.95;;;15.85;;
75939;SDS011;75809;44.872;20.642;2024-01-16T18:08:45;38.75;;;15.80;;
75939;SDS011;75809;44.872;20.642;2024-01-16T18:11:12;39.97;;;16.38;;
75939;SDS011;75809;44.872;20.642;2024-01-16T18:13:38;39.67;;;16.63;;
75939;SDS011;75809;44.872;20.642;2024-01-16T18:16:03;46.85;;;19.17;;
75939;SDS011;75809;44.872;20.642;2024-01-16T18:18:31;46.20;;;17.52;;
75939;SDS011;75809;44.872;20.642;2024-01-16T18:20:57;53.00;;;20.65;;
75939;SDS011;75809;44.872;20.642;2024-01-16T18:23:23;51.42;;;22.83;;
75939;SDS011;75809;44.872;20.642;2024-01-16T18:25:49;59.17;;;23.17;;
75939;SDS011;75809;44.872;20.642;2024-01-16T18:28:15;59.45;;;25.90;;
75939;SDS011;75809;44.872;20.642;2024-01-16T18:30:40;68.88;;;28.08;;
75939;SDS011;75809;44.872;20.642;2024-01-16T18:33:06;72.72;;;28.67;;
75939;SDS011;75809;44.872;20.642;2024-01-16T18:35:32;70.80;;;28.30;;
75939;SDS011;75809;44.872;20.642;2024-01-16T18:37:57;73.47;;;30.88;;
75939;SDS011;75809;44.872;20.642;2024-01-16T18:40:22;86.40;;;33.85;;
75939;SDS011;75809;44.872;20.642;2024-01-16T18:42:49;85.75;;;35.05;;
75939;SDS011;75809;44.872;20.642;2024-01-16T18:45:15;77.20;;;31.40;;
75939;SDS011;75809;44.872;20.642;2024-01-16T18:47:41;51.33;;;23.90;;
75939;SDS011;75809;44.872;20.642;2024-01-16T18:50:09;48.95;;;21.40;;
75939;SDS011;75809;44.872;20.642;2024-01-16T18:52:36;37.00;;;17.02;;
75939;SDS011;75809;44.872;20.642;2024-01-16T18:55:04;34.42;;;14.60;;
75939;SDS011;75809;44.872;20.642;2024-01-16T18:57:38;36.47;;;15.85;;
75939;SDS011;75809;44.872;20.642;2024-01-16T19:00:08;37.00;;;14.05;;
75939;SDS011;75809;44.872;20.642;2024-01-16T19:02:39;28.63;;;11.30;;
75939;SDS011;75809;44.872;20.642;2024-01-16T19:05:07;26.17;;;11.68;;
75939;SDS011;75809;44.872;20.642;2024-01-16T19:10:03;29.42;;;11.48;;
75939;SDS011;75809;44.872;20.642;2024-01-16T19:12:30;27.55;;;11.27;;
75939;SDS011;75809;44.872;20.642;2024-01-16T19:14:56;26.38;;;11.82;;
75939;SDS011;75809;44.872;20.642;2024-01-16T19:17:22;25.95;;;11.13;;
75939;SDS011;75809;44.872;20.642;2024-01-16T19:19:49;16.80;;;7.18;;
75939;SDS011;75809;44.872;20.642;2024-01-16T19:22:14;17.50;;;7.95;;
75939;SDS011;75809;44.872;20.642;2024-01-16T19:24:41;16.83;;;6.95;;
75939;SDS011;75809;44.872;20.642;2024-01-16T19:27:06;17.42;;;7.63;;
75939;SDS011;75809;44.872;20.642;2024-01-16T19:29:32;20.80;;;6.03;;
75939;SDS011;75809;44.872;20.642;2024-01-16T19:31:58;15.43;;;6.45;;
75939;SDS011;75809;44.872;20.642;2024-01-16T19:34:23;20.90;;;8.20;;
75939;SDS011;75809;44.872;20.642;2024-01-16T19:36:49;14.25;;;5.43;;
75939;SDS011;75809;44.872;20.642;2024-01-16T19:39:15;17.40;;;6.13;;
75939;SDS011;75809;44.872;20.642;2024-01-16T19:41:41;16.98;;;5.35;;
75939;SDS011;75809;44.872;20.642;2024-01-16T19:44:08;18.15;;;6.07;;
75939;SDS011;75809;44.872;20.642;2024-01-16T19:46:38;13.93;;;4.75;;
75939;SDS011;75809;44.872;20.642;2024-01-16T19:49:04;16.42;;;5.65;;
75939;SDS011;75809;44.872;20.642;2024-01-16T19:51:33;19.38;;;7.22;;
75939;SDS011;75809;44.872;20.642;2024-01-16T19:54:01;23.33;;;8.10;;
75939;SDS011;75809;44.872;20.642;2024-01-16T19:56:27;19.35;;;7.32;;
75939;SDS011;75809;44.872;20.642;2024-01-16T19:58:53;21.10;;;8.30;;
75939;SDS011;75809;44.872;20.642;2024-01-16T20:01:27;24.48;;;10.00;;
75939;SDS011;75809;44.872;20.642;2024-01-16T20:04:01;24.20;;;10.98;;
75939;SDS011;75809;44.872;20.642;2024-01-16T20:06:29;21.75;;;9.02;;
75939;SDS011;75809;44.872;20.642;2024-01-16T20:08:55;26.35;;;10.50;;
75939;SDS011;75809;44.872;20.642;2024-01-16T20:11:30;30.23;;;11.48;;
75939;SDS011;75809;44.872;20.642;2024-01-16T20:13:57;27.48;;;11.60;;
75939;SDS011;75809;44.872;20.642;2024-01-16T20:16:25;25.77;;;10.32;;
75939;SDS011;75809;44.872;20.642;2024-01-16T20:18:51;32.80;;;13.07;;
75939;SDS011;75809;44.872;20.642;2024-01-16T20:21:23;36.63;;;13.30;;
75939;SDS011;75809;44.872;20.642;2024-01-16T20:23:50;38.85;;;14.18;;
75939;SDS011;75809;44.872;20.642;2024-01-16T20:26:16;42.55;;;16.13;;
75939;SDS011;75809;44.872;20.642;2024-01-16T20:28:43;33.35;;;13.35;;
75939;SDS011;75809;44.872;20.642;2024-01-16T20:31:12;37.75;;;15.38;;
75939;SDS011;75809;44.872;20.642;2024-01-16T20:33:39;31.10;;;12.52;;
75939;SDS011;75809;44.872;20.642;2024-01-16T20:36:13;32.40;;;13.60;;
75939;SDS011;75809;44.872;20.642;2024-01-16T20:38:44;35.15;;;12.90;;
75939;SDS011;75809;44.872;20.642;2024-01-16T20:41:11;33.58;;;12.88;;
75939;SDS011;75809;44.872;20.642;2024-01-16T20:43:37;29.90;;;13.00;;
75939;SDS011;75809;44.872;20.642;2024-01-16T20:46:06;36.10;;;13.32;;
75939;SDS011;75809;44.872;20.642;2024-01-16T20:50:59;28.52;;;11.48;;
75939;SDS011;75809;44.872;20.642;2024-01-16T20:53:25;29.00;;;11.48;;
75939;SDS011;75809;44.872;20.642;2024-01-16T20:55:54;23.67;;;9.27;;
75939;SDS011;75809;44.872;20.642;2024-01-16T20:58:21;25.88;;;9.80;;
75939;SDS011;75809;44.872;20.642;2024-01-16T21:00:47;22.67;;;9.75;;
75939;SDS011;75809;44.872;20.642;2024-01-16T21:03:13;16.45;;;6.82;;
75939;SDS011;75809;44.872;20.642;2024-01-16T21:08:09;18.17;;;7.13;;
75939;SDS011;75809;44.872;20.642;2024-01-16T21:10:36;20.50;;;7.97;;
75939;SDS011;75809;44.872;20.642;2024-01-16T21:13:02;24.65;;;9.15;;
75939;SDS011;75809;44.872;20.642;2024-01-16T21:15:29;25.33;;;7.50;;
75939;SDS011;75809;44.872;20.642;2024-01-16T21:17:56;25.35;;;8.75;;
75939;SDS011;75809;44.872;20.642;2024-01-16T21:20:23;19.45;;;7.30;;
75939;SDS011;75809;44.872;20.642;2024-01-16T21:22:49;19.95;;;8.18;;
75939;SDS011;75809;44.872;20.642;2024-01-16T21:25:14;20.20;;;8.25;;
75939;SDS011;75809;44.872;20.642;2024-01-16T21:27:42;20.48;;;7.32;;
75939;SDS011;75809;44.872;20.642;2024-01-16T21:30:08;22.10;;;8.38;;
75939;SDS011;75809;44.872;20.642;2024-01-16T21:32:34;20.58;;;8.57;;
75939;SDS011;75809;44.872;20.642;2024-01-16T21:35:00;26.13;;;9.43;;
75939;SDS011;75809;44.872;20.642;2024-01-16T21:37:25;25.23;;;10.65;;
75939;SDS011;75809;44.872;20.642;2024-01-16T21:39:51;30.27;;;10.10;;
75939;SDS011;75809;44.872;20.642;2024-01-16T21:42:17;31.83;;;10.68;;
75939;SDS011;75809;44.872;20.642;2024-01-16T21:44:43;32.35;;;10.60;;
75939;SDS011;75809;44.872;20.642;2024-01-16T21:47:09;26.45;;;11.38;;
75939;SDS011;75809;44.872;20.642;2024-01-16T21:49:35;25.83;;;10.77;;
75939;SDS011;75809;44.872;20.642;2024-01-16T21:52:01;23.80;;;9.18;;
75939;SDS011;75809;44.872;20.642;2024-01-16T21:54:27;26.67;;;9.65;;
75939;SDS011;75809;44.872;20.642;2024-01-16T21:56:56;23.08;;;8.90;;
75939;SDS011;75809;44.872;20.642;2024-01-16T21:59:22;25.52;;;10.27;;
75939;SDS011;75809;44.872;20.642;2024-01-16T22:01:47;29.83;;;10.50;;
75939;SDS011;75809;44.872;20.642;2024-01-16T22:04:13;22.33;;;9.55;;
75939;SDS011;75809;44.872;20.642;2024-01-16T22:06:38;21.55;;;7.68;;
75939;SDS011;75809;44.872;20.642;2024-01-16T22:09:04;23.48;;;7.45;;
75939;SDS011;75809;44.872;20.642;2024-01-16T22:11:29;19.65;;;6.63;;
75939;SDS011;75809;44.872;20.642;2024-01-16T22:13:55;22.15;;;7.47;;
75939;SDS011;75809;44.872;20.642;2024-01-16T22:16:20;17.10;;;7.07;;
75939;SDS011;75809;44.872;20.642;2024-01-16T22:18:46;19.05;;;6.70;;
75939;SDS011;75809;44.872;20.642;2024-01-16T22:21:11;17.55;;;6.30;;
75939;SDS011;75809;44.872;20.642;2024-01-16T22:23:37;18.35;;;7.10;;
75939;SDS011;75809;44.872;20.642;2024-01-16T22:26:02;15.50;;;6.38;;
75939;SDS011;75809;44.872;20.642;2024-01-16T22:28:28;17.13;;;6.20;;
75939;SDS011;75809;44.872;20.642;2024-01-16T22:30:54;13.93;;;5.47;;
75939;SDS011;75809;44.872;20.642;2024-01-16T22:33:20;16.20;;;6.57;;
75939;SDS011;75809;44.872;20.642;2024-01-16T22:35:46;17.58;;;7.03;;
75939;SDS011;75809;44.872;20.642;2024-01-16T22:38:13;11.43;;;4.20;;
75939;SDS011;75809;44.872;20.642;2024-01-16T22:40:39;18.15;;;6.13;;
75939;SDS011;75809;44.872;20.642;2024-01-16T22:43:04;15.20;;;5.63;;
75939;SDS011;75809;44.872;20.642;2024-01-16T22:45:30;21.33;;;7.45;;
75939;SDS011;75809;44.872;20.642;2024-01-16T22:47:57;19.95;;;6.28;;
75939;SDS011;75809;44.872;20.642;2024-01-16T22:50:24;22.00;;;8.07;;
75939;SDS011;75809;44.872;20.642;2024-01-16T22:52:50;20.33;;;7.80;;
75939;SDS011;75809;44.872;20.642;2024-01-16T22:55:16;20.75;;;8.27;;
75939;SDS011;75809;44.872;20.642;2024-01-16T22:57:44;19.98;;;8.07;;
75939;SDS011;75809;44.872;20.642;2024-01-16T23:00:11;17.83;;;6.95;;
75939;SDS011;75809;44.872;20.642;2024-01-16T23:02:46;11.95;;;5.10;;
75939;SDS011;75809;44.872;20.642;2024-01-16T23:05:16;20.52;;;7.65;;
75939;SDS011;75809;44.872;20.642;2024-01-16T23:07:42;17.58;;;6.30;;
75939;SDS011;75809;44.872;20.642;2024-01-16T23:10:14;23.95;;;9.45;;
75939;SDS011;75809;44.872;20.642;2024-01-16T23:12:40;22.98;;;9.23;;
75939;SDS011;75809;44.872;20.642;2024-01-16T23:15:08;17.27;;;6.15;;
75939;SDS011;75809;44.872;20.642;2024-01-16T23:17:35;15.65;;;5.80;;
75939;SDS011;75809;44.872;20.642;2024-01-16T23:20:03;14.02;;;5.93;;
75939;SDS011;75809;44.872;20.642;2024-01-16T23:22:40;22.63;;;9.02;;
75939;SDS011;75809;44.872;20.642;2024-01-16T23:25:06;9.30;;;4.00;;
75939;SDS011;75809;44.872;20.642;2024-01-16T23:27:34;18.40;;;7.40;;
75939;SDS011;75809;44.872;20.642;2024-01-16T23:30:00;19.48;;;6.15;;
75939;SDS011;75809;44.872;20.642;2024-01-16T23:32:26;18.42;;;6.38;;
75939;SDS011;75809;44.872;20.642;2024-01-16T23:34:52;13.25;;;5.13;;
75939;SDS011;75809;44.872;20.642;2024-01-16T23:37:18;13.02;;;5.25;;
75939;SDS011;75809;44.872;20.642;2024-01-16T23:39:49;13.63;;;6.18;;
75939;SDS011;75809;44.872;20.642;2024-01-16T23:42:17;21.02;;;6.28;;
75939;SDS011;75809;44.872;20.642;2024-01-16T23:44:42;15.05;;;6.93;;
75939;SDS011;75809;44.872;20.642;2024-01-16T23:47:08;15.65;;;6.18;;
75939;SDS011;75809;44.872;20.642;2024-01-16T23:49:33;15.18;;;6.15;;
75939;SDS011;75809;44.872;20.642;2024-01-16T23:52:00;15.63;;;7.70;;
75939;SDS011;75809;44.872;20.642;2024-01-16T23:54:26;16.02;;;5.65;;
75939;SDS011;75809;44.872;20.642;2024-01-16T23:56:51;13.90;;;5.28;;
75939;SDS011;75809;44.872;20.642;2024-01-16T23:59:17;10.50;;;4.65;;
